Time;durP1;ratioP1;P1;durP2;ratioP2;P2;SDS_P1;SDS_P2;PMS_P1;PMS_P2;Temp;Humidity;BMP_temperature;BMP_pressure;BME280_temperature;BME280_humidity;BME280_pressure;Samples;Min_cycle;Max_cycle;Signal;HPM_P1;HPM_P2
2023/07/15 00:01:53;;;;;;;14.27;8.18;;;;;;;21.54;52.47;100284.44;5051780;28;20047;-69
2023/07/15 00:04:19;;;;;;;16.65;8.35;;;;;;;21.53;52.23;100289.28;5050472;28;20025;-69
2023/07/15 00:06:44;;;;;;;15.63;8.10;;;;;;;21.51;52.44;100283.22;5051577;28;20040;-69
2023/07/15 00:09:10;;;;;;;15.00;8.23;;;;;;;21.48;52.40;100284.81;5051851;28;20021;-68
2023/07/15 00:11:38;;;;;;;17.35;8.20;;;;;;;21.46;52.50;100273.16;5051615;28;20025;-68
2023/07/15 00:14:12;;;;;;;16.65;8.48;;;;;;;21.44;52.83;100274.75;5050533;28;20427;-68
2023/07/15 00:16:38;;;;;;;14.25;9.00;;;;;;;21.48;52.01;100286.81;5051674;28;20448;-69
2023/07/15 00:19:05;;;;;;;13.93;8.93;;;;;;;21.46;52.20;100284.41;5051573;28;20021;-69
2023/07/15 00:21:31;;;;;;;15.52;9.10;;;;;;;21.39;52.37;100284.38;5051659;28;20071;-69
2023/07/15 00:23:58;;;;;;;16.88;10.00;;;;;;;21.40;52.34;100276.75;5051644;28;20067;-69
2023/07/15 00:26:25;;;;;;;15.95;9.32;;;;;;;21.37;52.12;100285.97;5051442;28;20107;-69
2023/07/15 00:28:51;;;;;;;16.38;9.30;;;;;;;21.38;52.13;100277.13;5051625;28;20041;-69
2023/07/15 00:31:18;;;;;;;16.77;9.20;;;;;;;21.39;51.97;100275.13;5050202;28;20017;-69
2023/07/15 00:33:44;;;;;;;15.15;9.05;;;;;;;21.40;51.90;100279.56;5051702;28;20041;-69
2023/07/15 00:36:12;;;;;;;16.52;9.27;;;;;;;21.38;52.21;100273.50;5051694;28;20027;-69
2023/07/15 00:38:37;;;;;;;16.38;9.25;;;;;;;21.40;51.37;100283.16;5054222;28;20021;-69
2023/07/15 00:41:10;;;;;;;16.40;9.60;;;;;;;21.39;51.92;100270.31;5055668;28;20407;-70
2023/07/15 00:43:58;;;;;;;16.98;9.55;;;;;;;21.45;51.67;100279.16;5055603;28;20154;-68
2023/07/15 00:46:31;;;;;;;16.05;9.20;;;;;;;21.38;51.68;100265.88;5055689;28;20103;-69
2023/07/15 00:49:05;;;;;;;17.50;9.45;;;;;;;21.44;51.51;100283.19;5055726;28;20075;-69
2023/07/15 00:51:34;;;;;;;16.00;9.48;;;;;;;21.44;51.46;100277.56;5053921;28;20035;-69
2023/07/15 00:54:00;;;;;;;14.82;9.02;;;;;;;21.46;51.19;100287.22;5054241;28;20032;-69
2023/07/15 00:56:27;;;;;;;13.95;9.07;;;;;;;21.46;51.16;100283.59;5055235;28;20504;-69
2023/07/15 00:58:53;;;;;;;15.93;9.20;;;;;;;21.50;51.36;100290.84;5055478;28;20047;-69
2023/07/15 01:01:18;;;;;;;15.73;9.30;;;;;;;21.51;50.88;100284.03;5054996;28;20029;-69
2023/07/15 01:03:44;;;;;;;14.70;9.02;;;;;;;21.52;50.87;100293.28;5054733;28;20040;-69
2023/07/15 01:06:13;;;;;;;17.42;9.27;;;;;;;21.50;50.90;100290.84;5055104;28;20032;-69
2023/07/15 01:08:39;;;;;;;14.43;9.10;;;;;;;21.49;51.10;100297.66;5054880;28;20032;-69
2023/07/15 01:11:06;;;;;;;16.15;9.60;;;;;;;21.46;51.49;100301.28;5054772;28;20021;-69
2023/07/15 01:13:32;;;;;;;16.23;9.02;;;;;;;21.42;51.60;100299.66;5054859;28;20102;-69
2023/07/15 01:15:57;;;;;;;14.85;9.98;;;;;;;21.38;51.80;100301.63;5054848;28;20477;-69
2023/07/15 01:18:22;;;;;;;16.08;9.38;;;;;;;21.31;51.64;100300.41;5054677;28;20048;-70
2023/07/15 01:20:50;;;;;;;15.02;9.40;;;;;;;21.28;52.03;100298.38;5053124;28;20086;-69
2023/07/15 01:23:16;;;;;;;14.57;8.80;;;;;;;21.25;51.90;100298.34;5054975;28;20033;-69
2023/07/15 01:25:41;;;;;;;13.60;8.90;;;;;;;21.16;52.24;100296.72;5054346;28;20070;-68
2023/07/15 01:28:06;;;;;;;14.13;9.00;;;;;;;21.12;52.29;100295.06;5054269;28;20051;-69
2023/07/15 01:30:32;;;;;;;15.50;8.77;;;;;;;21.05;52.83;100298.63;5054215;28;20116;-69
2023/07/15 01:32:57;;;;;;;18.48;9.38;;;;;;;20.98;53.03;100301.41;5054137;28;20036;-69
2023/07/15 01:35:22;;;;;;;16.42;9.38;;;;;;;20.90;53.41;100299.75;5054137;28;20454;-69
2023/07/15 01:37:48;;;;;;;15.57;9.40;;;;;;;20.82;53.58;100296.06;5054142;28;20435;-69
2023/07/15 01:40:13;;;;;;;16.08;9.35;;;;;;;20.76;53.73;100295.63;5054153;28;20025;-69
2023/07/15 01:42:40;;;;;;;14.45;9.52;;;;;;;20.70;54.33;100299.97;5054107;28;20107;-69
2023/07/15 01:45:08;;;;;;;16.77;9.60;;;;;;;20.60;54.70;100298.66;5054060;28;20036;-69
2023/07/15 01:47:34;;;;;;;17.58;9.77;;;;;;;20.53;54.71;100304.22;5053966;28;20039;-69
2023/07/15 01:49:59;;;;;;;14.48;9.00;;;;;;;20.47;55.18;100308.59;5053274;28;20025;-70
2023/07/15 01:52:25;;;;;;;18.23;9.93;;;;;;;20.42;55.63;100304.94;5053895;28;20055;-69
2023/07/15 01:54:50;;;;;;;15.95;9.25;;;;;;;20.37;55.37;100310.09;5052488;28;20021;-70
2023/07/15 01:57:16;;;;;;;16.70;9.35;;;;;;;20.29;55.93;100317.66;5053661;28;20068;-69
2023/07/15 01:59:42;;;;;;;17.27;9.70;;;;;;;20.29;55.78;100311.22;5053687;28;20036;-69
2023/07/15 02:02:07;;;;;;;16.98;10.15;;;;;;;20.27;55.79;100306.81;5053579;28;20090;-69
2023/07/15 02:04:32;;;;;;;16.60;9.93;;;;;;;20.24;55.72;100309.56;5052285;28;20033;-69
2023/07/15 02:06:58;;;;;;;15.90;9.50;;;;;;;20.16;56.26;100308.72;5053552;28;20035;-69
2023/07/15 02:09:23;;;;;;;17.13;9.77;;;;;;;20.11;56.84;100303.44;5053441;28;20025;-69
2023/07/15 02:11:49;;;;;;;17.48;9.82;;;;;;;20.03;56.56;100305.34;5053393;28;20196;-70
2023/07/15 02:14:14;;;;;;;17.40;9.98;;;;;;;20.02;56.71;100315.00;5053361;28;20029;-69
2023/07/15 02:16:39;;;;;;;17.25;9.50;;;;;;;20.02;56.84;100319.78;5053415;28;20067;-69
2023/07/15 02:19:06;;;;;;;15.25;9.27;;;;;;;19.97;57.43;100315.31;5051790;28;20428;-69
2023/07/15 02:21:31;;;;;;;15.38;9.15;;;;;;;19.91;58.34;100303.63;5053436;28;20025;-69
2023/07/15 02:23:59;;;;;;;17.65;9.82;;;;;;;19.85;57.65;100301.50;5053065;28;20443;-69
2023/07/15 02:26:25;;;;;;;15.90;9.30;;;;;;;19.85;57.75;100322.00;5052996;28;20124;-69
2023/07/15 02:28:50;;;;;;;14.88;9.23;;;;;;;19.87;57.52;100321.63;5053645;28;20100;-69
2023/07/15 02:31:15;;;;;;;14.10;9.15;;;;;;;19.87;57.57;100322.44;5052843;28;20028;-68
2023/07/15 02:33:41;;;;;;;16.55;9.43;;;;;;;19.84;57.96;100320.34;5052930;28;20473;-69
2023/07/15 02:36:06;;;;;;;18.73;9.32;;;;;;;19.80;58.02;100322.28;5053067;28;20044;-69
2023/07/15 02:38:32;;;;;;;15.50;9.40;;;;;;;19.77;58.32;100321.06;5052980;28;20130;-69
2023/07/15 02:40:57;;;;;;;15.02;8.90;;;;;;;19.74;58.31;100335.84;5052934;28;20513;-69
2023/07/15 02:43:23;;;;;;;16.50;9.02;;;;;;;19.67;58.98;100323.75;5052830;28;20127;-69
2023/07/15 02:45:52;;;;;;;15.23;9.70;;;;;;;19.61;59.07;100320.47;5052796;28;20025;-69
2023/07/15 02:48:20;;;;;;;15.60;9.02;;;;;;;19.60;59.05;100313.25;5052762;28;20496;-69
2023/07/15 02:50:53;;;;;;;15.40;9.07;;;;;;;19.55;58.73;100319.19;5052605;28;20025;-69
2023/07/15 02:53:19;;;;;;;15.10;9.60;;;;;;;19.53;59.44;100315.97;5052852;28;20060;-69
2023/07/15 02:55:45;;;;;;;16.45;9.95;;;;;;;19.44;59.82;100314.25;5052740;28;20106;-69
2023/07/15 02:58:12;;;;;;;17.20;9.98;;;;;;;19.39;60.00;100311.75;5052563;28;20051;-69
2023/07/15 03:00:38;;;;;;;16.92;9.63;;;;;;;19.36;60.35;100314.53;5051578;28;20029;-69
2023/07/15 03:03:03;;;;;;;15.40;9.80;;;;;;;19.33;60.58;100310.47;5052269;28;20028;-69
2023/07/15 03:05:29;;;;;;;17.52;9.70;;;;;;;19.26;60.52;100305.56;5052649;28;20418;-69
2023/07/15 03:07:54;;;;;;;15.98;9.45;;;;;;;19.20;61.66;100306.28;5052442;28;20036;-68
2023/07/15 03:10:20;;;;;;;17.17;9.52;;;;;;;19.15;61.43;100308.25;5052328;28;20021;-69
2023/07/15 03:12:48;;;;;;;16.77;9.40;;;;;;;19.12;61.71;100311.00;5052412;28;20556;-69
2023/07/15 03:15:14;;;;;;;16.95;9.30;;;;;;;19.06;61.63;100307.72;5052516;28;20029;-69
2023/07/15 03:17:39;;;;;;;16.85;9.60;;;;;;;19.05;61.76;100310.88;5052624;28;20128;-69
2023/07/15 03:20:21;;;;;;;18.20;9.60;;;;;;;18.98;62.21;100309.59;5050903;28;20032;-69
2023/07/15 03:22:49;;;;;;;18.15;9.73;;;;;;;18.98;62.64;100308.78;5052281;28;20029;-70
2023/07/15 03:25:15;;;;;;;16.25;9.68;;;;;;;18.93;62.80;100309.91;5052167;28;20029;-69
2023/07/15 03:27:41;;;;;;;16.52;10.10;;;;;;;18.88;63.71;100312.19;5052038;28;20052;-70
2023/07/15 03:30:07;;;;;;;15.77;9.88;;;;;;;18.84;63.67;100304.53;5051856;28;20473;-69
2023/07/15 03:32:35;;;;;;;15.68;9.30;;;;;;;18.86;63.19;100313.38;5051775;28;20025;-70
2023/07/15 03:35:01;;;;;;;18.05;10.00;;;;;;;18.82;63.48;100309.69;5051955;28;20139;-69
2023/07/15 03:37:26;;;;;;;17.98;9.90;;;;;;;18.78;63.47;100311.66;5050302;28;20104;-69
2023/07/15 03:39:52;;;;;;;17.30;10.55;;;;;;;18.74;63.49;100310.78;5051648;28;20021;-69
2023/07/15 03:42:17;;;;;;;16.30;9.65;;;;;;;18.73;64.23;100316.75;5051681;28;20107;-69
2023/07/15 03:44:43;;;;;;;18.15;10.50;;;;;;;18.70;64.38;100310.72;5051788;28;20060;-69
2023/07/15 03:47:08;;;;;;;17.98;10.38;;;;;;;18.68;64.65;100309.47;5051820;28;20036;-70
2023/07/15 03:49:33;;;;;;;16.65;10.02;;;;;;;18.64;65.09;100314.19;5051756;28;20087;-70
2023/07/15 03:51:59;;;;;;;18.40;9.88;;;;;;;18.60;65.68;100311.34;5051424;28;20053;-69
2023/07/15 03:54:24;;;;;;;18.27;9.73;;;;;;;18.55;65.74;100309.66;5051550;28;20032;-69
2023/07/15 03:56:49;;;;;;;16.92;9.30;;;;;;;18.54;66.09;100318.44;5051495;28;20029;-69
2023/07/15 03:59:14;;;;;;;19.10;9.15;;;;;;;18.50;67.03;100307.19;5051593;28;20037;-70
2023/07/15 04:01:40;;;;;;;15.88;9.30;;;;;;;18.54;66.63;100316.44;5051396;28;20029;-69
2023/07/15 04:04:08;;;;;;;15.82;8.85;;;;;;;18.55;67.19;100306.88;5051469;28;20078;-69
2023/07/15 04:06:34;;;;;;;17.25;9.00;;;;;;;18.55;67.21;100318.06;5051733;28;20029;-69
2023/07/15 04:08:59;;;;;;;18.27;9.43;;;;;;;18.58;66.44;100304.50;5051410;28;20216;-69
2023/07/15 04:11:25;;;;;;;14.82;8.57;;;;;;;18.56;67.52;100313.28;5051049;28;20059;-70
2023/07/15 04:13:51;;;;;;;16.60;9.32;;;;;;;18.57;67.45;100308.47;5051313;28;20477;-69
2023/07/15 04:16:16;;;;;;;15.93;9.13;;;;;;;18.58;66.98;100308.09;5051293;28;20040;-69
2023/07/15 04:18:45;;;;;;;17.02;9.40;;;;;;;18.63;66.35;100310.59;5051117;28;20063;-69
2023/07/15 04:21:10;;;;;;;18.40;9.32;;;;;;;18.63;66.58;100309.78;5051163;28;20028;-69
2023/07/15 04:23:35;;;;;;;17.30;9.32;;;;;;;18.67;66.44;100311.47;5051082;28;20029;-69
2023/07/15 04:26:01;;;;;;;16.58;8.95;;;;;;;18.73;65.97;100309.16;5050660;28;20023;-69
2023/07/15 04:28:27;;;;;;;16.63;9.10;;;;;;;18.78;66.17;100320.06;5051313;28;20029;-69
2023/07/15 04:30:52;;;;;;;18.17;8.95;;;;;;;18.80;65.64;100314.88;5049460;28;20033;-69
2023/07/15 04:33:17;;;;;;;17.50;9.48;;;;;;;18.84;66.04;100315.75;5049499;28;20025;-69
2023/07/15 04:35:46;;;;;;;16.80;9.25;;;;;;;18.88;65.46;100310.19;5050969;28;20032;-69
2023/07/15 04:38:11;;;;;;;18.17;9.48;;;;;;;18.86;66.35;100321.78;5050863;28;20024;-69
2023/07/15 04:40:37;;;;;;;17.40;9.30;;;;;;;18.95;65.72;100326.34;5049468;28;20781;-69
2023/07/15 04:43:02;;;;;;;16.25;9.20;;;;;;;18.98;66.10;100329.19;5050932;28;20382;-69
2023/07/15 04:45:29;;;;;;;17.33;9.13;;;;;;;19.02;65.75;100335.69;5050929;28;20035;-69
2023/07/15 04:47:54;;;;;;;16.10;8.65;;;;;;;19.12;65.90;100328.59;5050935;28;20086;-69
2023/07/15 04:50:20;;;;;;;16.25;8.90;;;;;;;19.18;66.19;100337.50;5050842;28;20479;-69
2023/07/15 04:52:45;;;;;;;15.82;8.65;;;;;;;19.21;66.12;100336.75;5050815;28;20428;-69
2023/07/15 04:55:10;;;;;;;18.60;8.60;;;;;;;19.30;66.30;100336.47;5051057;28;20025;-69
2023/07/15 04:57:36;;;;;;;18.33;8.73;;;;;;;19.38;66.32;100345.81;5050792;28;20502;-69
2023/07/15 05:00:01;;;;;;;17.75;8.88;;;;;;;19.43;66.61;100337.06;5050715;28;20453;-69
2023/07/15 05:02:26;;;;;;;17.90;9.20;;;;;;;19.48;66.76;100333.94;5050642;28;20029;-69
2023/07/15 05:04:52;;;;;;;16.45;8.60;;;;;;;19.58;65.48;100333.28;5050575;28;20021;-69
2023/07/15 05:07:17;;;;;;;18.58;8.85;;;;;;;19.66;65.35;100342.56;5050621;28;20025;-70
2023/07/15 05:09:42;;;;;;;16.23;8.70;;;;;;;19.70;65.43;100335.03;5050590;28;20023;-69
2023/07/15 05:12:10;;;;;;;18.02;9.20;;;;;;;19.80;64.51;100328.72;5050456;28;20029;-70
2023/07/15 05:14:36;;;;;;;23.50;9.40;;;;;;;19.82;64.19;100333.16;5050768;28;20101;-68
2023/07/15 05:17:02;;;;;;;16.38;9.05;;;;;;;19.94;63.23;100325.31;5050601;28;20025;-69
2023/07/15 05:19:27;;;;;;;16.50;8.93;;;;;;;19.99;63.20;100323.34;5050508;28;20033;-68
2023/07/15 05:21:53;;;;;;;17.27;9.25;;;;;;;20.01;63.14;100324.59;5050629;28;20029;-68
2023/07/15 05:24:18;;;;;;;17.00;9.05;;;;;;;20.13;62.93;100334.75;5052315;28;20029;-68
2023/07/15 05:26:44;;;;;;;17.48;9.18;;;;;;;20.17;62.79;100338.38;5054096;28;20049;-69
2023/07/15 05:29:09;;;;;;;20.02;9.85;;;;;;;20.22;63.63;100331.63;5054143;28;20108;-68
2023/07/15 05:31:35;;;;;;;17.27;9.65;;;;;;;20.28;63.85;100327.28;5054048;28;20053;-68
2023/07/15 05:34:00;;;;;;;19.60;10.15;;;;;;;20.37;63.17;100330.59;5054051;28;20029;-68
2023/07/15 05:36:25;;;;;;;18.83;10.38;;;;;;;20.40;63.56;100331.81;5054102;28;20037;-68
2023/07/15 05:38:51;;;;;;;17.83;9.80;;;;;;;20.46;63.25;100330.25;5054006;28;20108;-68
2023/07/15 05:41:16;;;;;;;19.10;10.27;;;;;;;20.51;63.21;100341.16;5053912;28;20124;-68
2023/07/15 05:43:42;;;;;;;17.23;9.82;;;;;;;20.60;62.96;100337.22;5054105;28;20041;-68
2023/07/15 05:46:07;;;;;;;18.83;10.23;;;;;;;20.64;63.10;100332.44;5054154;28;20106;-69
2023/07/15 05:48:32;;;;;;;19.02;10.50;;;;;;;20.74;63.23;100340.16;5052479;28;20033;-69
2023/07/15 05:50:58;;;;;;;17.80;10.25;;;;;;;20.81;63.17;100342.25;5053636;28;20507;-70
2023/07/15 05:53:23;;;;;;;18.45;10.10;;;;;;;20.85;63.38;100348.72;5052027;28;20370;-69
2023/07/15 05:55:49;;;;;;;18.50;10.00;;;;;;;20.97;63.50;100345.56;5053593;28;20021;-70
2023/07/15 05:58:14;;;;;;;18.95;10.60;;;;;;;21.11;62.77;100346.88;5052196;28;20027;-71
2023/07/15 06:00:40;;;;;;;17.85;10.15;;;;;;;21.24;63.17;100355.81;5053641;28;20131;-70
2023/07/15 06:03:06;;;;;;;18.60;10.20;;;;;;;21.31;63.17;100348.25;5053595;28;20107;-70
2023/07/15 06:05:31;;;;;;;20.20;11.48;;;;;;;21.48;63.09;100338.28;5052148;28;20032;-70
2023/07/15 06:07:57;;;;;;;19.27;10.57;;;;;;;21.62;62.49;100337.59;5053416;28;20021;-70
2023/07/15 06:10:22;;;;;;;18.88;10.43;;;;;;;21.81;62.49;100335.66;5053349;28;20036;-70
2023/07/15 06:12:47;;;;;;;21.90;10.60;;;;;;;21.93;61.44;100337.31;5053316;28;20025;-69
2023/07/15 06:15:12;;;;;;;18.05;10.30;;;;;;;21.97;62.00;100341.75;5053362;28;20087;-70
2023/07/15 06:17:38;;;;;;;19.27;10.57;;;;;;;21.96;61.00;100336.53;5053325;28;20070;-69
2023/07/15 06:20:05;;;;;;;19.35;10.20;;;;;;;21.93;60.77;100348.56;5053325;28;20037;-69
2023/07/15 06:22:30;;;;;;;19.63;11.02;;;;;;;21.99;61.08;100354.63;5053226;28;20025;-69
2023/07/15 06:24:56;;;;;;;19.15;11.30;;;;;;;22.03;60.09;100352.59;5053288;28;20158;-69
2023/07/15 06:27:21;;;;;;;18.17;10.85;;;;;;;22.06;60.02;100347.00;5053146;28;20128;-69
2023/07/15 06:29:48;;;;;;;19.67;11.13;;;;;;;22.05;60.10;100348.22;5053111;28;20104;-69
2023/07/15 06:32:14;;;;;;;21.58;10.23;;;;;;;22.05;60.42;100353.84;5052955;28;20032;-69
2023/07/15 06:34:39;;;;;;;16.95;9.35;;;;;;;22.05;60.71;100361.47;5052955;28;20033;-69
2023/07/15 06:37:05;;;;;;;17.17;9.15;;;;;;;22.12;61.54;100356.69;5052909;28;20053;-69
2023/07/15 06:39:30;;;;;;;17.77;9.00;;;;;;;22.25;62.20;100345.84;5052881;28;20033;-69
2023/07/15 06:41:56;;;;;;;16.02;9.00;;;;;;;22.31;63.61;100339.81;5052848;28;20025;-69
2023/07/15 06:44:21;;;;;;;14.20;8.55;;;;;;;22.39;63.25;100349.88;5052813;28;20095;-69
2023/07/15 06:46:47;;;;;;;14.63;8.80;;;;;;;22.46;63.95;100343.50;5052708;28;20362;-69
2023/07/15 06:49:12;;;;;;;14.80;8.60;;;;;;;22.50;64.49;100353.56;5051147;28;20037;-69
2023/07/15 06:51:38;;;;;;;13.00;8.55;;;;;;;22.52;65.70;100359.59;5052588;28;20451;-70
2023/07/15 06:54:03;;;;;;;15.02;8.60;;;;;;;22.60;66.02;100360.44;5052710;28;20033;-69
2023/07/15 06:56:28;;;;;;;14.82;8.20;;;;;;;22.74;64.96;100354.00;5052422;28;20020;-70
2023/07/15 06:58:54;;;;;;;16.02;8.70;;;;;;;22.75;65.37;100355.63;5052563;28;20398;-69
2023/07/15 07:01:19;;;;;;;12.23;8.40;;;;;;;22.87;65.54;100346.72;5052320;28;20234;-67
2023/07/15 07:03:45;;;;;;;15.65;8.90;;;;;;;22.95;65.68;100346.75;5052444;28;20128;-68
2023/07/15 07:06:10;;;;;;;15.55;8.93;;;;;;;22.96;65.30;100342.69;5052295;28;20060;-68
2023/07/15 07:08:36;;;;;;;14.43;8.85;;;;;;;22.96;65.28;100351.16;5052408;28;20028;-68
2023/07/15 07:11:02;;;;;;;13.65;8.57;;;;;;;23.01;66.28;100360.03;5051068;28;20146;-68
2023/07/15 07:13:27;;;;;;;12.80;8.40;;;;;;;23.08;65.68;100350.75;5052477;28;20495;-69
2023/07/15 07:15:57;;;;;;;13.73;8.40;;;;;;;23.07;65.51;100340.69;5052317;28;20025;-69
2023/07/15 07:18:22;;;;;;;15.30;8.57;;;;;;;23.07;64.92;100340.69;5052447;28;20044;-69
2023/07/15 07:20:47;;;;;;;12.52;8.15;;;;;;;23.13;64.89;100347.53;5052021;28;20040;-70
2023/07/15 07:23:13;;;;;;;13.07;8.32;;;;;;;23.20;63.95;100352.38;5052172;28;20071;-69
2023/07/15 07:25:41;;;;;;;15.35;8.45;;;;;;;23.33;63.93;100359.22;5052261;28;20060;-69
2023/07/15 07:28:06;;;;;;;17.30;9.50;;;;;;;23.40;63.23;100351.94;5051803;28;20057;-70
2023/07/15 07:30:32;;;;;;;16.70;8.52;;;;;;;23.38;63.48;100357.22;5052004;28;20052;-70
2023/07/15 07:32:58;;;;;;;15.90;8.90;;;;;;;23.37;63.12;100364.84;5051916;28;20426;-69
2023/07/15 07:35:23;;;;;;;13.77;8.32;;;;;;;23.40;63.09;100368.88;5051966;28;20142;-69
2023/07/15 07:37:49;;;;;;;13.05;8.23;;;;;;;23.40;63.68;100366.88;5051871;28;20028;-70
2023/07/15 07:40:14;;;;;;;12.82;8.32;;;;;;;23.41;63.66;100373.31;5051888;28;20062;-70
2023/07/15 07:42:40;;;;;;;13.75;8.40;;;;;;;23.45;63.95;100376.94;5051771;28;20055;-69
2023/07/15 07:45:15;;;;;;;15.23;8.60;;;;;;;23.57;63.68;100382.13;5051770;28;20021;-70
2023/07/15 07:47:40;;;;;;;13.80;8.38;;;;;;;23.71;62.81;100372.81;5049818;28;20420;-70
2023/07/15 07:50:06;;;;;;;14.10;8.50;;;;;;;23.83;62.22;100377.22;5051592;28;20047;-69
2023/07/15 07:52:31;;;;;;;15.00;8.60;;;;;;;24.05;61.31;100365.84;5051512;28;20385;-69
2023/07/15 07:54:57;;;;;;;14.13;8.30;;;;;;;24.32;61.12;100363.28;5051614;28;20114;-69
2023/07/15 07:57:22;;;;;;;13.48;8.43;;;;;;;24.50;59.19;100365.19;5051619;28;20029;-69
2023/07/15 07:59:47;;;;;;;14.38;8.63;;;;;;;24.57;59.64;100367.97;5050248;28;20025;-70
2023/07/15 08:02:13;;;;;;;11.73;8.40;;;;;;;24.68;60.32;100368.72;5051523;28;20369;-69
2023/07/15 08:04:38;;;;;;;15.40;9.02;;;;;;;24.68;59.70;100360.25;5051297;28;20398;-70
2023/07/15 08:07:03;;;;;;;14.70;8.75;;;;;;;24.80;60.40;100358.13;5051413;28;20104;-70
2023/07/15 08:09:29;;;;;;;15.00;8.30;;;;;;;24.91;59.72;100350.38;5051398;28;20036;-69
2023/07/15 08:11:54;;;;;;;14.07;8.48;;;;;;;24.95;59.76;100356.00;5051198;28;20029;-69
2023/07/15 08:14:20;;;;;;;13.05;8.10;;;;;;;24.90;59.66;100365.75;5051412;28;20031;-69
2023/07/15 08:16:45;;;;;;;15.32;8.07;;;;;;;24.71;59.95;100369.91;5051180;28;20033;-70
2023/07/15 08:19:11;;;;;;;13.18;8.00;;;;;;;24.66;61.49;100371.13;5051125;28;20039;-69
2023/07/15 08:21:37;;;;;;;13.60;8.10;;;;;;;24.84;61.12;100376.69;5051360;28;20499;-70
2023/07/15 08:24:02;;;;;;;13.20;8.05;;;;;;;25.09;61.12;100367.16;5051207;28;20055;-70
2023/07/15 08:26:28;;;;;;;13.55;7.93;;;;;;;25.27;60.52;100369.06;5051184;28;20059;-70
2023/07/15 08:28:55;;;;;;;14.75;8.27;;;;;;;25.36;59.81;100370.16;5051525;28;20111;-70
2023/07/15 08:31:21;;;;;;;14.02;8.10;;;;;;;25.43;60.03;100379.81;5051372;28;20045;-70
2023/07/15 08:33:47;;;;;;;13.68;8.10;;;;;;;25.34;60.01;100383.91;5051036;28;20053;-69
2023/07/15 08:36:12;;;;;;;11.43;7.80;;;;;;;25.32;60.90;100385.56;5051115;28;20060;-70
2023/07/15 08:38:38;;;;;;;11.57;7.60;;;;;;;25.30;60.68;100382.34;5051061;28;20033;-69
2023/07/15 08:41:03;;;;;;;13.43;8.00;;;;;;;25.25;60.85;100382.81;5051223;28;20033;-68
2023/07/15 08:43:30;;;;;;;13.85;7.85;;;;;;;25.24;61.33;100384.81;5050942;28;20026;-67
2023/07/15 08:45:59;;;;;;;13.88;8.40;;;;;;;25.22;60.62;100390.13;5051260;28;20033;-69
2023/07/15 08:48:25;;;;;;;12.82;8.02;;;;;;;25.12;61.47;100383.31;5050841;28;20033;-68
2023/07/15 08:50:55;;;;;;;14.45;8.20;;;;;;;25.09;59.94;100392.66;5050827;28;20078;-69
2023/07/15 08:53:25;;;;;;;12.95;8.38;;;;;;;25.07;60.70;100400.78;5051009;28;20083;-68
2023/07/15 08:55:50;;;;;;;14.27;8.20;;;;;;;25.06;60.46;100405.59;5051060;28;20025;-68
2023/07/15 08:58:16;;;;;;;12.38;7.70;;;;;;;25.10;59.04;100411.22;5049849;28;20090;-67
2023/07/15 09:00:42;;;;;;;12.75;7.63;;;;;;;25.03;59.57;100403.59;5053636;28;20479;-68
2023/07/15 09:03:07;;;;;;;13.38;8.00;;;;;;;24.99;59.77;100404.84;5054911;28;20021;-68
2023/07/15 09:05:33;;;;;;;12.98;7.93;;;;;;;24.96;59.80;100420.66;5054910;28;20610;-68
2023/07/15 09:07:58;;;;;;;12.73;7.85;;;;;;;24.91;60.78;100429.59;5054674;28;20449;-69
2023/07/15 09:10:24;;;;;;;14.38;7.85;;;;;;;24.85;59.68;100442.53;5053222;28;20033;-68
2023/07/15 09:12:54;;;;;;;16.05;8.45;;;;;;;24.74;61.06;100436.97;5054720;28;20029;-69
2023/07/15 09:15:20;;;;;;;13.80;8.02;;;;;;;24.63;60.05;100445.50;5054504;28;20353;-68
2023/07/15 09:17:54;;;;;;;14.02;8.20;;;;;;;24.43;60.06;100445.19;5054454;28;20495;-68
2023/07/15 09:20:20;;;;;;;14.85;8.30;;;;;;;24.19;59.24;100444.09;5054529;28;20104;-70
2023/07/15 09:22:56;;;;;;;13.60;8.48;;;;;;;24.06;59.64;100435.28;5054365;28;20028;-69
2023/07/15 09:25:22;;;;;;;15.10;8.63;;;;;;;24.02;60.77;100432.47;5054530;28;20167;-68
2023/07/15 09:27:48;;;;;;;16.48;8.23;;;;;;;24.06;60.50;100432.44;5054128;28;20531;-69
2023/07/15 09:30:14;;;;;;;15.32;8.57;;;;;;;24.23;59.72;100431.56;5054124;28;20040;-69
2023/07/15 09:32:40;;;;;;;14.48;8.40;;;;;;;24.42;59.26;100429.44;5054345;28;20037;-69
2023/07/15 09:35:08;;;;;;;13.75;8.15;;;;;;;24.71;59.23;100432.13;5054284;28;20440;-69
2023/07/15 09:37:34;;;;;;;13.57;8.13;;;;;;;24.85;58.99;100431.22;5054120;28;20033;-69
2023/07/15 09:40:07;;;;;;;16.85;8.50;;;;;;;25.13;57.80;100435.88;5054113;28;20032;-69
2023/07/15 09:42:52;;;;;;;14.55;8.32;;;;;;;25.30;57.12;100434.13;5054341;28;20456;-68
2023/07/15 09:45:30;;;;;;;13.43;7.90;;;;;;;25.32;56.44;100445.03;5054046;28;20025;-69
2023/07/15 09:47:55;;;;;;;16.05;8.15;;;;;;;25.17;57.26;100442.31;5053836;28;20112;-69
2023/07/15 09:50:22;;;;;;;15.07;8.18;;;;;;;25.00;57.42;100431.94;5052448;28;20398;-68
2023/07/15 09:52:48;;;;;;;15.63;8.10;;;;;;;24.83;57.90;100445.00;5053963;28;20503;-68
2023/07/15 09:55:14;;;;;;;13.20;7.90;;;;;;;24.77;58.02;100450.28;5053942;28;20021;-69
2023/07/15 09:57:39;;;;;;;15.48;8.10;;;;;;;24.73;58.52;100450.31;5052474;28;20032;-68
2023/07/15 10:00:06;;;;;;;14.57;8.20;;;;;;;24.75;58.57;100456.34;5053435;28;20428;-68
2023/07/15 10:02:39;;;;;;;12.23;7.97;;;;;;;24.71;58.74;100474.56;5053170;28;20056;-69
2023/07/15 10:05:05;;;;;;;14.77;8.00;;;;;;;24.63;58.98;100470.97;5053894;28;20036;-68
2023/07/15 10:07:32;;;;;;;13.82;8.13;;;;;;;24.47;60.12;100485.56;5053477;28;20113;-68
2023/07/15 10:09:59;;;;;;;13.70;7.93;;;;;;;24.40;60.55;100474.31;5051845;28;20107;-69
2023/07/15 10:12:27;;;;;;;15.10;8.60;;;;;;;24.29;60.97;100477.97;5052974;28;20485;-68
2023/07/15 10:14:52;;;;;;;16.85;8.88;;;;;;;24.24;62.81;100474.78;5053344;28;20071;-68
2023/07/15 10:17:18;;;;;;;12.90;8.05;;;;;;;24.16;63.22;100470.38;5053014;28;20544;-68
2023/07/15 10:19:51;;;;;;;15.30;8.50;;;;;;;24.02;66.75;100471.22;5051911;28;20040;-70
2023/07/15 10:22:18;;;;;;;14.68;8.80;;;;;;;23.76;70.99;100456.31;5053346;28;20044;-70
2023/07/15 10:24:55;;;;;;;13.07;8.75;;;;;;;23.50;69.54;100450.72;5052049;28;20083;-69
2023/07/15 10:27:25;;;;;;;16.33;9.20;;;;;;;23.35;72.53;100449.09;5052991;28;20052;-69
2023/07/15 10:30:14;;;;;;;14.55;9.05;;;;;;;23.36;71.78;100433.78;5053263;28;20063;-69
2023/07/15 10:33:08;;;;;;;16.70;9.07;;;;;;;23.30;72.71;100432.59;5053152;28;20059;-69
2023/07/15 10:35:40;;;;;;;17.35;9.18;;;;;;;23.23;75.54;100438.25;5053246;28;20024;-70
2023/07/15 10:38:28;;;;;;;15.20;8.85;;;;;;;23.21;73.66;100433.00;5052902;28;20111;-70
2023/07/15 10:41:04;;;;;;;15.73;8.80;;;;;;;23.37;76.01;100446.69;5052999;28;20033;-72
2023/07/15 10:43:33;;;;;;;13.27;8.70;;;;;;;23.42;74.39;100434.19;5053008;28;20116;-71
2023/07/15 10:46:09;;;;;;;14.00;8.55;;;;;;;23.45;72.29;100439.03;5052844;28;20064;-69
2023/07/15 10:48:36;;;;;;;14.02;8.40;;;;;;;23.59;71.04;100439.00;5052778;28;20040;-68
2023/07/15 10:51:07;;;;;;;14.20;8.65;;;;;;;23.77;73.73;100447.44;5052973;28;20040;-71
2023/07/15 10:53:33;;;;;;;16.83;8.70;;;;;;;23.76;70.58;100451.47;5052795;28;20070;-71
2023/07/15 10:56:07;;;;;;;15.07;8.50;;;;;;;23.78;71.23;100453.88;5052971;28;20059;-70
2023/07/15 10:58:33;;;;;;;;;;;;;;;23.90;69.22;100449.84;5053060;28;20499;-68
2023/07/15 11:01:05;;;;;;;13.75;8.25;;;;;;;23.83;71.02;100448.63;5052621;28;19966;-69
2023/07/15 11:03:32;;;;;;;13.82;8.50;;;;;;;23.93;70.16;100463.97;5052743;28;20484;-70
2023/07/15 11:06:01;;;;;;;15.35;8.85;;;;;;;23.92;69.01;100459.50;5053308;28;20484;-68
2023/07/15 11:08:27;;;;;;;13.98;8.10;;;;;;;23.91;68.48;100468.38;5053557;28;20032;-69
2023/07/15 11:11:01;;;;;;;13.90;8.30;;;;;;;23.92;69.08;100472.81;5053255;28;20033;-69
2023/07/15 11:13:27;;;;;;;13.80;8.18;;;;;;;23.86;69.60;100461.13;5052056;28;20029;-70
2023/07/15 11:15:53;;;;;;;16.35;8.50;;;;;;;23.81;68.89;100450.25;5053204;28;20033;-71